Terminal Aerodrome Forecast
Issued by NWS

Home | Current Version | Previous Version | Text Only | Print | Product List | Glossary On
Versions: 1 2 3 4 5 6 7 8 9 10 11 12 13 14 15 16 17 18 19 20 21 22 23 24 25 26 27 28 29 30 31 32 33 34 35 36 37 38 39 40 41 42 43 44 45 46 47 48 49 50
098
FTUS42 KRAH 251140
TAFINT
TAF
KINT 251140Z 2512/2612 20008KT P6SM BKN050
     FM251500 22013G22KT P6SM BKN050
      TEMPO 2516/2518 3SM -SHRA BR BKN030
     FM251800 24018G28KT P6SM FEW030 BKN040
     FM252100 26017G27KT P6SM BKN050
     FM260000 31015G22KT P6SM SKC
     FM260400 31010KT P6SM SKC=

USA.gov is the U.S. government's official web portal to all federal, state and local government web resources and services.